createdAt,value
2018-08-23T00:00:17.481Z,20.90
2018-08-23T00:02:49.176Z,20.70
2018-08-23T00:05:21.767Z,20.60
2018-08-23T00:08:09.063Z,20.60
2018-08-23T00:10:39.924Z,20.50
2018-08-23T00:13:11.517Z,20.40
2018-08-23T00:15:44.035Z,20.30
2018-08-23T00:18:15.434Z,20.30
2018-08-23T00:20:46.492Z,20.30
2018-08-23T00:23:18.494Z,20.20
2018-08-23T00:25:48.582Z,20.10
2018-08-23T00:28:22.159Z,20.00
2018-08-23T00:30:53.099Z,19.90
2018-08-23T00:33:24.347Z,19.80
2018-08-23T00:35:56.974Z,19.60
2018-08-23T00:38:28.929Z,19.60
2018-08-23T00:40:59.490Z,19.40
2018-08-23T00:43:31.811Z,19.30
2018-08-23T00:46:06.661Z,19.30
2018-08-23T00:48:38.209Z,19.20
2018-08-23T00:51:08.755Z,19.20
2018-08-23T00:53:40.389Z,19.10
2018-08-23T00:56:18.139Z,19.10
2018-08-23T00:58:53.275Z,19.00
2018-08-23T01:01:23.794Z,19.00
2018-08-23T01:03:54.953Z,18.90
2018-08-23T01:06:35.585Z,18.80
2018-08-23T01:09:09.989Z,18.70
2018-08-23T01:11:40.111Z,18.70
2018-08-23T01:14:10.366Z,18.70
2018-08-23T01:16:41.518Z,18.70
2018-08-23T01:19:17.463Z,18.60
2018-08-23T01:21:55.196Z,18.60
2018-08-23T01:24:30.814Z,18.50
2018-08-23T01:27:01.170Z,18.50
2018-08-23T01:29:32.111Z,18.50
2018-08-23T01:32:14.196Z,18.40
2018-08-23T01:34:44.473Z,18.40
2018-08-23T01:37:33.438Z,18.40
2018-08-23T01:40:07.380Z,18.30
2018-08-23T01:42:38.605Z,18.30
2018-08-23T01:45:12.186Z,18.30
2018-08-23T01:47:47.841Z,18.30
2018-08-23T01:50:19.972Z,18.20
2018-08-23T01:52:52.854Z,18.20
2018-08-23T01:55:24.410Z,18.10
2018-08-23T01:57:55.342Z,18.10
2018-08-23T02:00:33.736Z,18.00
2018-08-23T02:03:05.294Z,18.00
2018-08-23T02:05:38.558Z,17.90
2018-08-23T02:08:08.754Z,17.80
2018-08-23T02:10:45.750Z,17.80
2018-08-23T02:13:24.354Z,17.70
2018-08-23T02:15:55.845Z,17.60
2018-08-23T02:18:25.826Z,17.60
2018-08-23T02:21:01.171Z,17.60
2018-08-23T02:23:33.128Z,17.50
2018-08-23T02:26:03.584Z,17.50
2018-08-23T02:28:33.998Z,17.50
2018-08-23T02:31:04.543Z,17.50
2018-08-23T02:33:35.118Z,17.40
2018-08-23T02:36:15.865Z,17.40
2018-08-23T02:38:56.888Z,17.30
2018-08-23T02:41:27.437Z,17.20
2018-08-23T02:43:58.302Z,17.20
2018-08-23T02:46:28.963Z,17.10
2018-08-23T02:48:59.727Z,17.10
2018-08-23T02:51:45.332Z,17.00
2018-08-23T02:54:17.314Z,17.00
2018-08-23T02:56:53.890Z,17.00
2018-08-23T02:59:26.336Z,16.90
2018-08-23T03:01:56.930Z,16.90
2018-08-23T03:04:29.956Z,16.90
2018-08-23T03:07:04.583Z,16.90
2018-08-23T03:09:37.675Z,16.80
2018-08-23T03:12:08.714Z,16.80
2018-08-23T03:14:40.162Z,16.80
2018-08-23T03:17:36.048Z,16.80
2018-08-23T03:20:17.500Z,16.70
2018-08-23T03:22:50.958Z,16.70
2018-08-23T03:25:23.411Z,16.70
2018-08-23T03:27:56.126Z,16.70
2018-08-23T03:30:27.971Z,16.70
2018-08-23T03:32:58.423Z,16.60
2018-08-23T03:35:28.635Z,16.60
2018-08-23T03:37:59.171Z,16.60
2018-08-23T03:40:30.231Z,16.60
2018-08-23T03:43:00.413Z,16.60
2018-08-23T03:45:30.834Z,16.60
2018-08-23T03:48:01.667Z,16.60
2018-08-23T03:50:38.293Z,16.60
2018-08-23T03:53:09.007Z,16.60
2018-08-23T03:55:39.189Z,16.60
2018-08-23T03:58:10.320Z,16.60
2018-08-23T04:01:04.588Z,16.60
2018-08-23T04:03:34.804Z,16.60
2018-08-23T04:06:25.481Z,16.60
2018-08-23T04:08:55.716Z,16.60
2018-08-23T04:11:26.822Z,16.50
2018-08-23T04:13:56.730Z,16.50
2018-08-23T04:16:29.466Z,16.40
2018-08-23T04:18:59.685Z,16.40
2018-08-23T04:21:32.195Z,16.40
2018-08-23T04:24:02.404Z,16.30
2018-08-23T04:26:32.605Z,16.30
2018-08-23T04:29:02.895Z,16.30
2018-08-23T04:31:33.179Z,16.20
2018-08-23T04:34:07.619Z,16.20
2018-08-23T04:36:40.463Z,16.20
2018-08-23T04:39:13.377Z,16.20
2018-08-23T04:41:43.914Z,16.20
2018-08-23T04:44:16.138Z,16.20
2018-08-23T04:46:46.379Z,16.10
2018-08-23T04:49:19.681Z,16.10
2018-08-23T04:51:50.601Z,16.10
2018-08-23T04:54:21.593Z,16.10
2018-08-23T04:56:53.815Z,16.10
2018-08-23T04:59:25.808Z,16.10
2018-08-23T05:01:55.923Z,16.10
2018-08-23T05:04:26.114Z,16.10
2018-08-23T05:06:56.355Z,16.10
2018-08-23T05:09:26.398Z,16.10
2018-08-23T05:11:58.781Z,16.20
2018-08-23T05:14:28.982Z,16.20
2018-08-23T05:16:59.171Z,16.10
2018-08-23T05:19:30.240Z,16.10
2018-08-23T05:22:00.379Z,16.20
2018-08-23T05:24:31.603Z,16.20
2018-08-23T05:27:02.947Z,16.20
2018-08-23T05:29:33.169Z,16.20
2018-08-23T05:32:04.520Z,16.20
2018-08-23T05:34:34.875Z,16.30
2018-08-23T05:37:07.786Z,16.30
2018-08-23T05:39:50.291Z,16.30
2018-08-23T05:42:37.593Z,16.30
2018-08-23T05:45:11.202Z,16.30
2018-08-23T05:47:42.537Z,16.30
2018-08-23T05:50:13.168Z,16.30
2018-08-23T05:52:44.400Z,16.30
2018-08-23T05:55:15.438Z,16.30
2018-08-23T05:57:47.270Z,16.40
2018-08-23T06:00:18.882Z,16.40
2018-08-23T06:02:50.796Z,16.40
2018-08-23T06:05:21.759Z,16.50
2018-08-23T06:07:51.994Z,16.50
2018-08-23T06:10:23.709Z,16.60
2018-08-23T06:12:54.052Z,16.60
2018-08-23T06:15:25.405Z,16.60
2018-08-23T06:17:55.443Z,16.60
2018-08-23T06:20:28.323Z,16.60
2018-08-23T06:22:58.866Z,16.60
2018-08-23T06:25:30.056Z,16.60
2018-08-23T06:28:00.483Z,16.70
2018-08-23T06:30:32.198Z,16.70
2018-08-23T06:33:04.492Z,16.80
2018-08-23T06:35:39.239Z,16.80
2018-08-23T06:38:11.143Z,16.90
2018-08-23T06:40:42.756Z,17.00
2018-08-23T06:43:13.378Z,17.10
2018-08-23T06:45:43.343Z,17.10
2018-08-23T06:48:13.525Z,17.10
2018-08-23T06:50:47.719Z,17.20
2018-08-23T06:53:19.438Z,17.40
2018-08-23T06:55:49.672Z,17.60
2018-08-23T06:58:21.255Z,17.60
2018-08-23T07:00:51.308Z,17.70
2018-08-23T07:03:23.477Z,17.70
2018-08-23T07:05:53.725Z,17.70
2018-08-23T07:08:25.007Z,17.60
2018-08-23T07:11:12.115Z,17.60
2018-08-23T07:13:42.531Z,17.50
2018-08-23T07:16:12.701Z,17.40
2018-08-23T07:18:44.207Z,17.50
2018-08-23T07:21:14.834Z,17.50
2018-08-23T07:23:45.963Z,17.60
2018-08-23T07:26:17.124Z,17.50
2018-08-23T07:28:47.062Z,17.40
2018-08-23T07:31:17.847Z,17.50
2018-08-23T07:33:52.168Z,17.50
2018-08-23T07:36:30.034Z,17.60
2018-08-23T07:39:00.511Z,17.70
2018-08-23T07:41:31.252Z,17.70
2018-08-23T07:44:04.539Z,17.80
2018-08-23T07:46:35.105Z,17.80
2018-08-23T07:49:05.943Z,17.70
2018-08-23T07:51:36.159Z,17.70
2018-08-23T07:54:10.605Z,17.70
2018-08-23T07:56:41.106Z,17.80
2018-08-23T07:59:12.561Z,17.80
2018-08-23T08:01:42.634Z,17.90
2018-08-23T08:04:12.754Z,18.00
2018-08-23T08:06:43.386Z,18.00
2018-08-23T08:09:20.666Z,18.10
2018-08-23T08:12:10.706Z,18.20
2018-08-23T08:14:40.976Z,18.30
2018-08-23T08:17:33.407Z,18.20
2018-08-23T08:20:10.235Z,18.20
2018-08-23T08:22:41.199Z,18.30
2018-08-23T08:25:18.614Z,18.30
2018-08-23T08:27:49.995Z,18.30
2018-08-23T08:31:24.621Z,18.30
2018-08-23T08:33:59.175Z,18.20
2018-08-23T08:36:32.969Z,18.30
2018-08-23T08:39:06.078Z,18.40
2018-08-23T08:41:37.670Z,18.50
2018-08-23T08:44:08.845Z,18.60
2018-08-23T08:46:40.920Z,18.70
2018-08-23T08:49:12.462Z,18.60
2018-08-23T08:51:44.528Z,18.60
2018-08-23T08:54:15.939Z,18.60
2018-08-23T08:56:46.753Z,18.60
2018-08-23T08:59:16.721Z,18.80
2018-08-23T09:01:46.879Z,18.90
2018-08-23T09:04:22.419Z,19.10
2018-08-23T09:06:53.463Z,19.20
2018-08-23T09:09:37.196Z,19.30
2018-08-23T09:12:10.304Z,19.50
2018-08-23T09:14:42.054Z,19.60
2018-08-23T09:17:33.555Z,19.70
2018-08-23T09:20:08.437Z,19.80
2018-08-23T09:22:43.506Z,19.80
2018-08-23T09:25:21.182Z,19.80
2018-08-23T09:27:53.271Z,19.70
2018-08-23T09:30:28.251Z,19.70
2018-08-23T09:33:03.769Z,19.80
2018-08-23T09:35:35.258Z,19.90
2018-08-23T09:38:18.449Z,20.00
2018-08-23T09:40:50.569Z,20.00
2018-08-23T09:43:21.047Z,20.10
2018-08-23T09:45:54.269Z,20.10
2018-08-23T09:48:25.208Z,20.10
2018-08-23T09:50:55.762Z,20.00
2018-08-23T09:53:26.956Z,20.00
2018-08-23T09:55:58.436Z,20.00
2018-08-23T09:58:39.361Z,20.00
2018-08-23T10:01:15.114Z,20.20
2018-08-23T10:11:04.625Z,20.30
2018-08-23T10:13:40.458Z,20.30
2018-08-23T10:16:15.931Z,20.40
2018-08-23T10:18:51.624Z,20.40
2018-08-23T10:21:25.902Z,20.40
2018-08-23T10:24:24.424Z,20.40
2018-08-23T10:26:55.611Z,20.30
2018-08-23T10:29:26.475Z,20.40
2018-08-23T10:31:56.769Z,20.60
2018-08-23T10:34:27.805Z,20.70
2018-08-23T10:36:59.089Z,20.90
2018-08-23T10:39:29.238Z,20.80
2018-08-23T10:41:59.720Z,20.90
2018-08-23T10:44:32.136Z,20.90
2018-08-23T10:47:02.529Z,20.90
2018-08-23T10:49:32.646Z,21.00
2018-08-23T10:52:04.785Z,21.00
2018-08-23T10:54:35.373Z,21.10
2018-08-23T10:57:08.330Z,21.10
2018-08-23T10:59:39.578Z,21.10
2018-08-23T11:02:13.555Z,21.20
2018-08-23T11:04:45.362Z,21.20
2018-08-23T11:07:15.519Z,21.20
2018-08-23T11:09:50.785Z,21.30
2018-08-23T11:12:26.589Z,21.50
2018-08-23T11:14:56.661Z,21.50
2018-08-23T11:17:32.203Z,21.50
2018-08-23T11:20:07.471Z,21.60
2018-08-23T11:22:38.528Z,21.70
2018-08-23T11:25:08.665Z,21.70
2018-08-23T11:27:38.751Z,21.70
2018-08-23T11:30:12.710Z,21.80
2018-08-23T11:32:43.627Z,21.90
2018-08-23T11:35:15.989Z,21.90
2018-08-23T11:37:46.378Z,22.00
2018-08-23T11:40:17.253Z,22.20
2018-08-23T11:42:48.384Z,22.20
2018-08-23T11:45:20.610Z,22.30
2018-08-23T11:47:53.064Z,22.30
2018-08-23T11:50:30.324Z,22.40
2018-08-23T11:53:01.302Z,22.60
2018-08-23T11:55:31.609Z,22.50
2018-08-23T11:58:02.802Z,22.40
2018-08-23T12:00:32.975Z,22.40
2018-08-23T12:03:04.214Z,22.40
2018-08-23T12:05:36.383Z,22.40
2018-08-23T12:08:07.196Z,22.50
2018-08-23T12:10:38.071Z,22.50
2018-08-23T12:13:08.539Z,22.50
2018-08-23T12:15:40.443Z,22.50
2018-08-23T12:18:13.476Z,22.60
2018-08-23T12:20:45.139Z,22.80
2018-08-23T12:23:15.403Z,22.80
2018-08-23T12:25:45.901Z,23.00
2018-08-23T12:28:21.262Z,23.10
2018-08-23T12:30:52.867Z,23.20
2018-08-23T12:33:24.298Z,23.20
2018-08-23T12:35:55.691Z,23.20
2018-08-23T12:38:31.593Z,23.20
2018-08-23T12:41:06.738Z,23.10
2018-08-23T12:43:48.137Z,23.40
2018-08-23T12:46:19.826Z,23.50
2018-08-23T12:48:54.361Z,23.60
2018-08-23T12:51:24.528Z,23.80
2018-08-23T12:53:54.506Z,23.90
2018-08-23T12:56:28.839Z,24.10
2018-08-23T12:58:59.551Z,24.10
2018-08-23T13:01:29.949Z,24.20
2018-08-23T13:04:00.501Z,24.30
2018-08-23T13:06:37.290Z,24.30
2018-08-23T13:09:08.506Z,24.20
2018-08-23T13:11:38.713Z,24.10
2018-08-23T13:14:08.952Z,24.00
2018-08-23T13:16:39.232Z,23.80
2018-08-23T13:19:10.781Z,23.70
2018-08-23T13:21:41.976Z,23.60
2018-08-23T13:24:13.533Z,23.50
2018-08-23T13:26:45.822Z,23.50
2018-08-23T13:29:15.848Z,23.50
2018-08-23T13:31:46.118Z,23.40
2018-08-23T13:34:16.339Z,23.30
2018-08-23T13:36:47.208Z,23.30
2018-08-23T13:39:17.342Z,23.30
2018-08-23T13:41:47.921Z,23.40
2018-08-23T13:44:18.926Z,23.40
2018-08-23T13:46:50.515Z,23.20
2018-08-23T13:49:20.612Z,23.50
2018-08-23T13:51:51.410Z,23.60
2018-08-23T13:54:22.689Z,23.80
2018-08-23T13:56:53.676Z,23.90
2018-08-23T13:59:23.734Z,24.00
2018-08-23T14:01:54.142Z,24.00
2018-08-23T14:04:24.199Z,24.10
2018-08-23T14:06:54.564Z,24.10
2018-08-23T14:09:25.716Z,24.10
2018-08-23T14:11:56.289Z,24.20
2018-08-23T14:14:26.539Z,24.30
2018-08-23T14:16:57.522Z,24.50
2018-08-23T14:19:27.594Z,24.60
2018-08-23T14:22:00.149Z,24.60
2018-08-23T14:24:30.911Z,24.50
2018-08-23T14:27:01.513Z,24.40
2018-08-23T14:29:32.558Z,24.30
2018-08-23T14:32:03.408Z,24.10
2018-08-23T14:34:33.536Z,24.00
2018-08-23T14:37:04.775Z,23.90
2018-08-23T14:39:34.877Z,23.80
2018-08-23T14:42:06.245Z,23.70
2018-08-23T14:44:36.844Z,23.80
2018-08-23T14:47:12.162Z,23.90
2018-08-23T14:49:42.310Z,24.00
2018-08-23T14:52:13.140Z,24.20
2018-08-23T14:54:43.656Z,24.50
2018-08-23T14:57:19.964Z,25.00
2018-08-23T14:59:50.018Z,26.10
2018-08-23T15:02:20.796Z,27.00
2018-08-23T15:04:51.231Z,27.90
2018-08-23T15:07:22.517Z,28.90
2018-08-23T15:09:52.738Z,29.90
2018-08-23T15:12:23.168Z,30.50
2018-08-23T15:14:53.413Z,30.90
2018-08-23T15:17:24.745Z,30.90
2018-08-23T15:19:55.621Z,30.90
2018-08-23T15:22:25.820Z,30.80
2018-08-23T15:24:56.871Z,31.00
2018-08-23T15:27:31.241Z,31.10
2018-08-23T15:30:04.199Z,30.60
2018-08-23T15:32:34.724Z,29.90
2018-08-23T15:35:05.585Z,29.30
2018-08-23T15:37:35.727Z,29.00
2018-08-23T15:40:12.381Z,28.60
2018-08-23T15:42:44.438Z,28.40
2018-08-23T15:45:15.148Z,28.00
2018-08-23T15:47:46.872Z,28.10
2018-08-23T15:50:18.041Z,27.90
2018-08-23T15:52:48.914Z,27.50
2018-08-23T15:55:20.753Z,26.80
2018-08-23T15:57:54.060Z,26.20
2018-08-23T16:00:25.114Z,25.70
2018-08-23T16:03:02.131Z,25.40
2018-08-23T16:05:33.031Z,25.10
2018-08-23T16:08:04.460Z,24.70
2018-08-23T16:10:35.832Z,24.50
2018-08-23T16:13:05.973Z,24.40
2018-08-23T16:15:36.146Z,24.50
2018-08-23T16:18:12.123Z,24.40
2018-08-23T16:20:47.730Z,24.40
2018-08-23T16:23:17.921Z,24.40
2018-08-23T16:25:49.688Z,24.30
2018-08-23T16:28:21.130Z,24.10
2018-08-23T16:30:51.522Z,23.90
2018-08-23T16:33:22.250Z,23.80
2018-08-23T16:35:52.446Z,23.60
2018-08-23T16:38:23.022Z,23.30
2018-08-23T16:40:53.642Z,23.20
2018-08-23T16:43:23.992Z,23.00
2018-08-23T16:45:54.287Z,22.90
2018-08-23T16:48:24.526Z,22.80
2018-08-23T16:50:55.219Z,22.70
2018-08-23T16:53:27.490Z,22.60
2018-08-23T16:55:57.526Z,22.50
2018-08-23T16:58:27.737Z,22.40
2018-08-23T17:00:58.566Z,22.30
2018-08-23T17:03:29.293Z,22.20
2018-08-23T17:05:59.743Z,22.20
2018-08-23T17:08:29.793Z,22.20
2018-08-23T17:11:01.270Z,22.10
2018-08-23T17:13:38.149Z,22.10
2018-08-23T17:16:13.189Z,22.00
2018-08-23T17:18:44.863Z,21.90
2018-08-23T17:21:15.460Z,22.00
2018-08-23T17:23:45.765Z,22.00
2018-08-23T17:26:16.617Z,22.00
2018-08-23T17:28:46.849Z,22.00
2018-08-23T17:31:18.558Z,21.90
2018-08-23T17:33:49.575Z,21.80
2018-08-23T17:36:20.482Z,21.80
2018-08-23T17:38:54.731Z,21.70
2018-08-23T17:41:25.796Z,21.50
2018-08-23T17:43:58.627Z,21.50
2018-08-23T17:46:30.588Z,21.40
2018-08-23T17:49:00.718Z,21.10
2018-08-23T17:51:32.529Z,20.80
2018-08-23T17:54:02.417Z,20.40
2018-08-23T17:56:33.215Z,19.90
2018-08-23T17:59:03.349Z,19.50
2018-08-23T18:01:33.965Z,19.20
2018-08-23T18:04:04.246Z,19.00
2018-08-23T18:06:35.006Z,18.90
2018-08-23T18:09:08.542Z,18.80
2018-08-23T18:11:38.955Z,18.70
2018-08-23T18:14:13.812Z,18.60
2018-08-23T18:16:50.217Z,18.40
2018-08-23T18:19:20.689Z,18.30
2018-08-23T18:21:51.036Z,18.20
2018-08-23T18:24:25.762Z,18.20
2018-08-23T18:27:00.192Z,18.10
2018-08-23T18:29:35.185Z,18.00
2018-08-23T18:32:08.412Z,18.00
2018-08-23T18:34:43.019Z,17.90
2018-08-23T18:37:14.086Z,17.90
2018-08-23T18:39:44.723Z,17.80
2018-08-23T18:42:15.365Z,17.80
2018-08-23T18:44:46.717Z,17.90
2018-08-23T18:47:18.029Z,17.80
2018-08-23T18:49:48.040Z,17.70
2018-08-23T18:52:19.584Z,17.60
2018-08-23T18:54:49.866Z,17.50
2018-08-23T18:57:21.390Z,17.50
2018-08-23T18:59:52.418Z,17.50
2018-08-23T19:02:23.754Z,17.50
2018-08-23T19:04:54.846Z,17.40
2018-08-23T19:07:30.241Z,17.40
2018-08-23T19:10:02.849Z,17.40
2018-08-23T19:12:34.331Z,17.40
2018-08-23T19:15:05.875Z,17.30
2018-08-23T19:17:40.576Z,17.30
2018-08-23T19:20:11.946Z,17.30
2018-08-23T19:22:45.263Z,17.30
2018-08-23T19:25:15.315Z,17.30
2018-08-23T19:27:45.654Z,17.40
2018-08-23T19:30:16.728Z,17.30
2018-08-23T19:32:48.837Z,17.20
2018-08-23T19:35:19.014Z,17.20
2018-08-23T19:37:49.232Z,17.20
2018-08-23T19:40:20.386Z,17.10
2018-08-23T19:42:51.035Z,17.00
2018-08-23T19:45:23.623Z,16.80
2018-08-23T19:47:57.107Z,16.70
2018-08-23T19:50:28.698Z,16.70
2018-08-23T19:52:59.608Z,16.60
2018-08-23T19:55:29.600Z,16.50
2018-08-23T19:58:00.949Z,16.40
2018-08-23T20:00:31.829Z,16.40
2018-08-23T20:03:02.240Z,16.40
2018-08-23T20:05:33.108Z,16.30
2018-08-23T20:08:04.030Z,16.30
2018-08-23T20:10:36.618Z,16.30
2018-08-23T20:13:14.059Z,16.30
2018-08-23T20:15:45.019Z,16.30
2018-08-23T20:18:17.331Z,16.30
2018-08-23T20:20:49.311Z,16.30
2018-08-23T20:23:20.361Z,16.30
2018-08-23T20:25:51.273Z,16.40
2018-08-23T20:28:22.583Z,16.40
2018-08-23T20:30:53.732Z,16.40
2018-08-23T20:33:24.752Z,16.40
2018-08-23T20:36:00.745Z,16.30
2018-08-23T20:38:30.896Z,16.20
2018-08-23T20:41:01.122Z,16.10
2018-08-23T20:43:34.060Z,16.00
2018-08-23T20:46:04.720Z,16.00
2018-08-23T20:48:36.346Z,16.00
2018-08-23T20:51:07.744Z,15.90
2018-08-23T20:53:38.286Z,15.80
2018-08-23T20:56:10.245Z,15.80
2018-08-23T20:58:42.052Z,15.70
2018-08-23T21:01:12.365Z,15.60
2018-08-23T21:03:43.350Z,15.60
2018-08-23T21:06:15.935Z,15.50
2018-08-23T21:08:46.929Z,15.40
2018-08-23T21:11:23.712Z,15.40
2018-08-23T21:13:54.091Z,15.40
2018-08-23T21:16:25.067Z,15.40
2018-08-23T21:18:55.296Z,15.30
2018-08-23T21:21:26.245Z,15.20
2018-08-23T21:23:57.379Z,15.10
2018-08-23T21:26:29.470Z,15.10
2018-08-23T21:29:01.540Z,15.00
2018-08-23T21:31:32.528Z,15.00
2018-08-23T21:34:02.627Z,14.90
2018-08-23T21:36:33.515Z,14.90
2018-08-23T21:39:04.733Z,14.80
2018-08-23T21:41:35.028Z,14.80
2018-08-23T21:44:06.149Z,14.70
2018-08-23T21:46:36.829Z,14.70
2018-08-23T21:49:07.343Z,14.70
2018-08-23T21:51:38.398Z,14.70
2018-08-23T21:54:09.013Z,14.70
2018-08-23T21:56:39.151Z,14.60
2018-08-23T21:59:09.607Z,14.60
2018-08-23T22:01:40.855Z,14.60
2018-08-23T22:04:12.154Z,14.50
2018-08-23T22:06:42.441Z,14.50
2018-08-23T22:09:12.511Z,14.50
2018-08-23T22:11:44.741Z,14.40
2018-08-23T22:14:16.388Z,14.40
2018-08-23T22:16:54.092Z,14.40
2018-08-23T22:19:24.331Z,14.40
2018-08-23T22:22:01.300Z,14.30
2018-08-23T22:24:31.932Z,14.30
2018-08-23T22:27:02.276Z,14.20
2018-08-23T22:29:33.381Z,14.20
2018-08-23T22:32:04.228Z,14.20
2018-08-23T22:34:34.462Z,14.20
2018-08-23T22:37:05.614Z,14.10
2018-08-23T22:39:36.597Z,14.10
2018-08-23T22:42:06.810Z,14.10
2018-08-23T22:44:37.470Z,14.10
2018-08-23T22:47:08.450Z,14.00
2018-08-23T22:49:39.734Z,14.00
2018-08-23T22:52:09.902Z,14.00
2018-08-23T22:54:40.713Z,14.00
2018-08-23T22:57:11.741Z,14.00
2018-08-23T22:59:42.695Z,14.00
2018-08-23T23:02:17.015Z,14.00
2018-08-23T23:04:47.768Z,13.90
2018-08-23T23:07:18.264Z,13.90
2018-08-23T23:09:48.685Z,13.90
2018-08-23T23:12:19.301Z,13.90
2018-08-23T23:14:50.036Z,13.90
2018-08-23T23:17:20.605Z,13.90
2018-08-23T23:19:52.036Z,13.90
2018-08-23T23:22:22.289Z,13.90
2018-08-23T23:25:01.057Z,13.90
2018-08-23T23:27:32.685Z,14.00
2018-08-23T23:30:02.718Z,14.00
2018-08-23T23:32:33.410Z,13.90
2018-08-23T23:35:03.817Z,13.90
2018-08-23T23:37:34.609Z,14.00
2018-08-23T23:40:06.514Z,14.00
2018-08-23T23:42:38.275Z,14.00
2018-08-23T23:45:09.519Z,14.00
2018-08-23T23:47:39.513Z,14.00
2018-08-23T23:50:09.829Z,14.00
2018-08-23T23:52:40.416Z,13.90
2018-08-23T23:55:11.351Z,13.90
2018-08-23T23:57:41.748Z,13.90
